createdAt,value
2022-09-23T00:01:25.595Z,99.90
2022-09-23T00:03:53.606Z,99.90
2022-09-23T00:06:23.606Z,99.90
2022-09-23T00:08:52.886Z,99.90
2022-09-23T00:11:22.910Z,99.90
2022-09-23T00:13:53.418Z,99.90
2022-09-23T00:16:24.724Z,99.90
2022-09-23T00:18:54.090Z,99.90
2022-09-23T00:21:23.551Z,99.90
2022-09-23T00:23:51.690Z,99.90
2022-09-23T00:26:21.550Z,99.90
2022-09-23T00:28:50.557Z,99.90
2022-09-23T00:31:20.740Z,99.90
2022-09-23T00:33:48.906Z,99.90
2022-09-23T00:36:18.246Z,99.90
2022-09-23T00:38:46.868Z,99.90
2022-09-23T00:41:16.310Z,99.90
2022-09-23T00:43:46.812Z,99.90
2022-09-23T00:46:18.721Z,99.90
2022-09-23T00:48:49.286Z,99.90
2022-09-23T00:51:22.783Z,99.90
2022-09-23T00:53:52.398Z,99.90
2022-09-23T00:56:23.042Z,99.90
2022-09-23T00:58:52.306Z,99.90
2022-09-23T01:01:21.488Z,99.90
2022-09-23T01:03:50.869Z,99.90
2022-09-23T01:06:20.461Z,99.90
2022-09-23T01:08:48.955Z,99.90
2022-09-23T01:11:41.227Z,99.90
2022-09-23T01:14:27.237Z,99.90
2022-09-23T01:16:59.907Z,99.90
2022-09-23T01:19:57.034Z,99.90
2022-09-23T01:22:35.810Z,99.90
2022-09-23T01:25:31.621Z,99.90
2022-09-23T01:28:17.220Z,99.90
2022-09-23T01:30:53.050Z,99.90
2022-09-23T01:33:25.594Z,99.90
2022-09-23T01:36:08.375Z,99.90
2022-09-23T01:38:44.768Z,99.90
2022-09-23T01:41:26.449Z,99.90
2022-09-23T01:44:01.693Z,99.90
2022-09-23T01:46:36.551Z,99.90
2022-09-23T01:49:10.731Z,99.90
2022-09-23T01:51:42.981Z,99.90
2022-09-23T01:54:16.490Z,99.90
2022-09-23T01:56:52.406Z,99.90
2022-09-23T01:59:26.379Z,99.90
2022-09-23T02:02:01.914Z,99.90
2022-09-23T02:04:39.702Z,99.90
2022-09-23T02:07:11.738Z,99.90
2022-09-23T04:48:28.278Z,99.90
2022-09-23T04:50:56.302Z,99.90
2022-09-23T04:53:24.282Z,99.90
2022-09-23T04:55:52.278Z,99.90
2022-09-23T04:58:23.073Z,99.90
2022-09-23T05:00:51.127Z,99.90
2022-09-23T05:03:19.174Z,99.90
2022-09-23T05:05:47.111Z,99.90
2022-09-23T05:08:15.314Z,99.90
2022-09-23T05:10:43.287Z,99.90
2022-09-23T05:13:11.185Z,99.90
2022-09-23T05:15:40.474Z,99.90
2022-09-23T05:18:08.499Z,99.90
2022-09-23T05:20:36.429Z,99.90
2022-09-23T05:23:04.422Z,99.90
2022-09-23T05:25:36.306Z,99.90
2022-09-23T05:28:06.845Z,99.90
2022-09-23T05:30:35.028Z,99.90
2022-09-23T05:33:04.446Z,99.90
2022-09-23T05:35:32.370Z,99.90
2022-09-23T05:38:00.334Z,99.90
2022-09-23T05:40:28.312Z,99.90
2022-09-23T05:42:56.458Z,99.90
2022-09-23T05:45:26.816Z,99.90
2022-09-23T05:47:54.966Z,99.90
2022-09-23T05:50:24.378Z,99.90
2022-09-23T05:52:52.365Z,99.90
2022-09-23T05:55:20.482Z,99.90
2022-09-23T05:57:48.379Z,99.90
2022-09-23T06:00:16.628Z,99.90
2022-09-23T06:02:44.658Z,99.90
2022-09-23T06:05:13.632Z,99.90
2022-09-23T06:07:42.886Z,99.90
2022-09-23T06:10:11.069Z,99.90
2022-09-23T06:12:39.041Z,99.90
2022-09-23T06:15:08.292Z,99.90
2022-09-23T06:17:36.209Z,99.90
2022-09-23T06:20:04.488Z,99.90
2022-09-23T06:22:35.408Z,99.90
2022-09-23T06:25:07.428Z,99.90
2022-09-23T06:27:35.306Z,99.90
2022-09-23T06:30:03.551Z,99.90
2022-09-23T06:32:31.475Z,99.90
2022-09-23T06:34:59.654Z,99.90
2022-09-23T06:37:27.953Z,99.90
2022-09-23T06:39:55.944Z,99.90
2022-09-23T06:42:25.300Z,99.90
2022-09-23T06:44:53.252Z,99.90
2022-09-23T06:47:21.173Z,99.90
2022-09-23T06:49:49.161Z,99.90
2022-09-23T06:52:17.424Z,99.90
2022-09-23T06:54:45.498Z,99.90
2022-09-23T06:57:13.508Z,99.90
2022-09-23T06:59:42.908Z,99.90
2022-09-23T07:02:14.296Z,99.90
2022-09-23T07:04:42.334Z,99.90
2022-09-23T07:07:11.513Z,99.90
2022-09-23T07:09:39.504Z,99.90
2022-09-23T07:12:08.222Z,99.90
2022-09-23T07:14:36.088Z,99.90
2022-09-23T07:17:05.738Z,99.90
2022-09-23T07:19:36.194Z,99.90
2022-09-23T07:22:05.129Z,99.90
2022-09-23T07:24:33.718Z,99.90
2022-09-23T07:27:02.102Z,99.90
2022-09-23T07:29:37.525Z,99.90
2022-09-23T07:32:14.260Z,99.90
2022-09-23T07:34:43.172Z,99.90
2022-09-23T07:37:11.343Z,99.90
2022-09-23T07:39:39.810Z,99.90
2022-09-23T07:42:08.062Z,99.90
2022-09-23T07:44:36.236Z,99.90
2022-09-23T07:47:05.123Z,99.90
2022-09-23T07:49:36.785Z,99.90
2022-09-23T07:52:05.473Z,99.90
2022-09-23T07:54:33.543Z,99.90
2022-09-23T07:57:02.058Z,99.90
2022-09-23T07:59:30.014Z,99.90
2022-09-23T08:01:58.214Z,99.90
2022-09-23T08:04:28.205Z,99.90
2022-09-23T08:07:00.122Z,99.90
2022-09-23T08:09:31.810Z,99.90
2022-09-23T08:12:00.035Z,99.90
2022-09-23T08:14:28.092Z,99.90
2022-09-23T08:16:56.903Z,99.90
2022-09-23T08:19:25.089Z,99.90
2022-09-23T08:21:55.744Z,99.90
2022-09-23T08:24:26.472Z,99.90
2022-09-23T08:26:55.380Z,99.90
2022-09-23T08:29:24.888Z,99.90
2022-09-23T08:31:53.655Z,99.90
2022-09-23T08:34:23.491Z,99.90
2022-09-23T08:36:52.413Z,99.90
2022-09-23T08:39:21.663Z,99.90
2022-09-23T08:42:08.207Z,99.90
2022-09-23T08:44:48.767Z,99.90
2022-09-23T08:47:22.237Z,99.90
2022-09-23T08:49:59.257Z,99.90
2022-09-23T08:52:33.813Z,99.90
2022-09-23T08:55:03.261Z,99.90
2022-09-23T08:57:44.213Z,99.90
2022-09-23T09:00:20.234Z,99.90
2022-09-23T09:02:49.278Z,99.90
2022-09-23T09:05:23.274Z,99.90
2022-09-23T09:07:51.247Z,99.90
2022-09-23T09:10:23.326Z,99.90
2022-09-23T09:13:04.473Z,99.90
2022-09-23T09:15:32.972Z,99.90
2022-09-23T09:18:07.690Z,99.90
2022-09-23T09:20:41.299Z,99.90
2022-09-23T09:23:21.872Z,99.90
2022-09-23T09:25:51.982Z,99.90
2022-09-23T09:28:30.907Z,99.90
2022-09-23T09:31:02.493Z,99.90
2022-09-23T09:33:38.074Z,99.90
2022-09-23T09:36:15.783Z,99.90
2022-09-23T09:38:43.806Z,99.90
2022-09-23T09:41:17.030Z,99.90
2022-09-23T09:43:52.364Z,99.90
2022-09-23T09:46:45.998Z,99.90
2022-09-23T09:49:24.123Z,99.90
2022-09-23T09:52:13.381Z,99.90
2022-09-23T09:54:41.418Z,99.90
2022-09-23T09:57:18.560Z,99.90
2022-09-23T09:59:47.920Z,99.90
2022-09-23T10:02:27.421Z,99.90
2022-09-23T10:05:01.446Z,99.90
2022-09-23T10:07:31.838Z,99.90
2022-09-23T10:10:31.412Z,99.90
2022-09-23T10:13:15.572Z,99.90
2022-09-23T10:15:45.875Z,99.90
2022-09-23T10:18:29.554Z,99.90
2022-09-23T10:21:08.127Z,99.90
2022-09-23T10:23:41.287Z,99.90
2022-09-23T10:26:10.236Z,99.90
2022-09-23T10:28:46.355Z,99.90
2022-09-23T10:31:17.740Z,99.40
2022-09-23T10:33:50.469Z,98.40
2022-09-23T10:36:19.512Z,98.20
2022-09-23T10:38:50.385Z,97.50
2022-09-23T10:41:48.864Z,97.10
2022-09-23T10:44:47.023Z,96.10
2022-09-23T10:47:28.305Z,95.00
2022-09-23T10:50:14.787Z,95.00
2022-09-23T10:52:54.461Z,94.30
2022-09-23T10:55:36.825Z,93.40
2022-09-23T10:58:52.638Z,92.60
2022-09-23T11:01:32.066Z,91.60
2022-09-23T11:04:44.539Z,90.80
2022-09-23T11:07:21.540Z,90.60
2022-09-23T11:10:41.888Z,90.50
2022-09-23T11:13:10.638Z,89.80
2022-09-23T11:15:48.116Z,88.50
2022-09-23T11:18:48.812Z,89.10
2022-09-23T11:21:41.549Z,88.60
2022-09-23T11:24:31.223Z,87.90
2022-09-23T11:27:09.529Z,85.50
2022-09-23T11:30:04.328Z,85.20
2022-09-23T11:33:04.982Z,85.90
2022-09-23T11:35:37.688Z,81.70
2022-09-23T11:38:13.067Z,81.30
2022-09-23T11:40:45.513Z,81.10
2022-09-23T11:43:21.723Z,80.70
2022-09-23T11:45:56.496Z,79.50
2022-09-23T11:48:31.136Z,78.30
2022-09-23T11:51:02.811Z,77.10
2022-09-23T11:53:39.173Z,75.90
2022-09-23T11:56:13.778Z,73.30
2022-09-23T11:58:53.175Z,72.50
2022-09-23T12:01:37.591Z,72.00
2022-09-23T12:04:19.091Z,71.50
2022-09-23T12:06:53.762Z,70.10
2022-09-23T12:09:53.834Z,69.00
2022-09-23T12:15:20.362Z,67.30
2022-09-23T12:18:35.912Z,67.60
2022-09-23T12:21:49.257Z,68.10
2022-09-23T12:24:47.895Z,69.60
2022-09-23T12:27:29.194Z,71.10
2022-09-23T12:30:01.020Z,71.20
2022-09-23T12:32:29.739Z,70.10
2022-09-23T12:34:57.851Z,69.20
2022-09-23T12:37:29.434Z,69.70
2022-09-23T12:40:03.226Z,70.60
2022-09-23T12:42:32.931Z,71.80
2022-09-23T12:45:42.475Z,72.40
2022-09-23T12:48:43.266Z,72.40
2022-09-23T12:51:22.093Z,72.70
2022-09-23T12:53:58.537Z,73.80
2022-09-23T12:56:58.685Z,74.50
2022-09-23T12:59:30.880Z,75.20
2022-09-23T13:02:11.281Z,74.00
2022-09-23T13:05:09.448Z,73.50
2022-09-23T13:07:45.431Z,72.00
2022-09-23T13:10:19.277Z,70.80
2022-09-23T13:12:48.407Z,70.00
2022-09-23T13:15:25.096Z,70.30
2022-09-23T13:17:53.141Z,70.90
2022-09-23T13:20:36.535Z,71.50
2022-09-23T13:23:26.354Z,72.20
2022-09-23T13:25:57.251Z,72.90
2022-09-23T13:28:36.770Z,73.10
2022-09-23T13:31:13.750Z,72.00
2022-09-23T13:33:44.978Z,70.40
2022-09-23T13:36:15.135Z,68.80
2022-09-23T13:38:43.310Z,67.30
2022-09-23T13:41:16.226Z,66.60
2022-09-23T13:43:46.377Z,65.60
2022-09-23T13:46:20.049Z,64.40
2022-09-23T13:48:49.774Z,63.10
2022-09-23T13:51:24.539Z,62.50
2022-09-23T13:53:56.850Z,61.90
2022-09-23T13:56:26.443Z,61.70
2022-09-23T13:58:55.876Z,61.80
2022-09-23T14:01:32.289Z,61.20
2022-09-23T14:04:01.067Z,60.30
2022-09-23T14:06:31.736Z,60.60
2022-09-23T14:09:02.472Z,60.20
2022-09-23T14:11:33.079Z,59.50
2022-09-23T14:14:07.095Z,58.90
2022-09-23T14:16:40.789Z,58.10
2022-09-23T14:19:16.775Z,57.90
2022-09-23T14:21:44.703Z,57.70
2022-09-23T14:24:23.330Z,57.00
2022-09-23T14:26:54.220Z,56.80
2022-09-23T14:29:26.071Z,56.70
2022-09-23T14:31:58.118Z,56.60
2022-09-23T14:34:46.692Z,57.00
2022-09-23T14:37:43.834Z,57.60
2022-09-23T14:40:15.890Z,57.90
2022-09-23T14:42:47.462Z,58.50
2022-09-23T14:45:19.351Z,58.60
2022-09-23T14:47:51.587Z,58.50
2022-09-23T14:50:39.974Z,59.50
2022-09-23T14:53:33.820Z,59.20
2022-09-23T14:56:17.425Z,59.20
2022-09-23T14:58:54.346Z,58.80
2022-09-23T15:01:37.147Z,58.80
2022-09-23T15:04:16.199Z,58.70
2022-09-23T15:06:48.388Z,58.70
2022-09-23T15:09:23.663Z,58.70
2022-09-23T15:11:58.110Z,58.40
2022-09-23T15:14:44.917Z,58.10
2022-09-23T15:17:25.815Z,57.60
2022-09-23T15:19:58.395Z,57.30
2022-09-23T15:22:27.345Z,57.80
2022-09-23T15:25:09.175Z,58.00
2022-09-23T15:27:37.098Z,58.50
2022-09-23T15:30:18.643Z,59.10
2022-09-23T15:32:47.535Z,59.60
2022-09-23T15:35:19.568Z,60.30
2022-09-23T15:37:49.891Z,61.60
2022-09-23T15:40:22.040Z,62.50
2022-09-23T15:42:52.297Z,63.10
2022-09-23T15:45:22.408Z,64.40
2022-09-23T15:47:52.252Z,66.10
2022-09-23T15:50:21.693Z,67.60
2022-09-23T15:52:49.621Z,68.50
2022-09-23T15:55:21.875Z,69.00
2022-09-23T15:57:50.285Z,69.90
2022-09-23T16:00:18.597Z,70.60
2022-09-23T16:02:48.554Z,71.50
2022-09-23T16:05:23.614Z,72.90
2022-09-23T16:07:53.332Z,74.20
2022-09-23T16:10:23.386Z,75.10
2022-09-23T16:12:54.748Z,76.00
2022-09-23T16:15:24.783Z,77.10
2022-09-23T16:17:54.681Z,78.00
2022-09-23T16:20:24.335Z,78.80
2022-09-23T16:22:55.947Z,79.90
2022-09-23T16:25:28.311Z,81.00
2022-09-23T16:27:57.205Z,82.10
2022-09-23T16:30:26.587Z,83.10
2022-09-23T16:32:54.815Z,84.10
2022-09-23T16:35:26.906Z,84.80
2022-09-23T16:37:55.944Z,85.50
2022-09-23T16:40:25.203Z,86.20
2022-09-23T16:42:54.898Z,86.90
2022-09-23T16:45:23.358Z,87.50
2022-09-23T16:47:52.833Z,88.10
2022-09-23T16:50:23.766Z,88.60
2022-09-23T16:52:56.325Z,89.20
2022-09-23T16:55:28.424Z,89.80
2022-09-23T16:57:56.670Z,90.20
2022-09-23T17:00:42.304Z,90.60
2022-09-23T17:03:30.969Z,91.00
2022-09-23T17:06:02.452Z,91.20
2022-09-23T17:08:32.599Z,91.50
2022-09-23T17:11:01.484Z,91.70
2022-09-23T17:13:31.077Z,92.00
2022-09-23T17:15:59.073Z,92.30
2022-09-23T17:18:28.319Z,92.50
2022-09-23T17:21:03.061Z,92.80
2022-09-23T17:23:31.849Z,93.30
2022-09-23T17:26:00.409Z,93.60
2022-09-23T17:28:28.807Z,93.90
2022-09-23T17:31:00.637Z,94.20
2022-09-23T17:33:30.035Z,94.30
2022-09-23T17:36:00.186Z,94.50
2022-09-23T17:38:29.801Z,94.80
2022-09-23T17:41:01.213Z,95.10
2022-09-23T17:43:31.450Z,95.30
2022-09-23T17:46:05.300Z,95.60
2022-09-23T17:48:34.948Z,95.80
2022-09-23T17:51:04.767Z,96.00
2022-09-23T17:53:36.036Z,96.10
2022-09-23T17:56:05.905Z,96.40
2022-09-23T17:58:36.345Z,96.60
2022-09-23T18:01:05.093Z,96.80
2022-09-23T18:03:33.448Z,96.90
2022-09-23T18:06:09.297Z,97.10
2022-09-23T18:08:39.279Z,97.20
2022-09-23T18:11:16.008Z,97.30
2022-09-23T18:13:47.591Z,97.50
2022-09-23T18:16:15.686Z,97.60
2022-09-23T18:18:44.654Z,97.80
2022-09-23T18:21:12.639Z,98.10
2022-09-23T18:23:42.272Z,98.30
2022-09-23T18:26:15.440Z,98.50
2022-09-23T18:28:43.812Z,98.80
2022-09-23T18:31:12.385Z,98.90
2022-09-23T18:33:40.581Z,99.10
2022-09-23T18:36:10.066Z,99.20
2022-09-23T18:38:38.061Z,99.30
2022-09-23T18:41:08.178Z,99.40
2022-09-23T18:43:41.293Z,99.60
2022-09-23T18:46:13.530Z,99.70
2022-09-23T18:48:59.729Z,99.90
2022-09-23T18:51:29.522Z,99.90
2022-09-23T18:53:58.620Z,99.90
2022-09-23T18:56:33.623Z,99.90
2022-09-23T18:59:01.863Z,99.90
2022-09-23T19:01:29.993Z,99.90
2022-09-23T19:03:58.976Z,99.90
2022-09-23T19:06:27.619Z,99.90
2022-09-23T19:08:56.237Z,99.90
2022-09-23T19:11:24.923Z,99.90
2022-09-23T19:14:00.386Z,99.90
2022-09-23T19:16:28.675Z,99.90
2022-09-23T19:18:56.679Z,99.90
2022-09-23T19:21:25.141Z,99.90
2022-09-23T19:23:54.708Z,99.90
2022-09-23T19:26:25.047Z,99.90
2022-09-23T19:28:54.650Z,99.90
2022-09-23T19:31:25.586Z,99.90
2022-09-23T19:33:56.885Z,99.90
2022-09-23T19:36:26.811Z,99.90
2022-09-23T19:38:56.071Z,99.90
2022-09-23T19:41:24.699Z,99.90
2022-09-23T19:44:02.396Z,99.90
2022-09-23T19:46:32.485Z,99.90
2022-09-23T19:49:01.675Z,99.90
2022-09-23T19:51:29.630Z,99.90
2022-09-23T19:53:57.645Z,99.90
2022-09-23T19:56:25.696Z,99.90
2022-09-23T19:58:55.763Z,99.90
2022-09-23T20:01:24.802Z,99.90
2022-09-23T20:03:54.928Z,99.90
2022-09-23T20:06:23.814Z,99.90
2022-09-23T20:08:52.034Z,99.90
2022-09-23T20:11:26.160Z,99.90
2022-09-23T20:14:00.920Z,99.90
2022-09-23T20:16:31.948Z,99.90
2022-09-23T20:19:03.147Z,99.90
2022-09-23T20:21:31.298Z,99.90
2022-09-23T20:23:59.329Z,99.90
2022-09-23T20:26:44.713Z,99.90
2022-09-23T20:29:12.779Z,99.90
2022-09-23T20:31:41.196Z,99.90
2022-09-23T20:34:11.171Z,99.90
2022-09-23T20:36:41.354Z,99.90
2022-09-23T20:39:10.566Z,99.90
2022-09-23T20:41:39.663Z,99.90
2022-09-23T20:44:12.347Z,99.90
2022-09-23T20:46:45.267Z,99.90
2022-09-23T20:49:17.755Z,99.90
2022-09-23T20:51:47.780Z,99.90
2022-09-23T20:54:16.432Z,99.90
2022-09-23T20:56:44.425Z,99.90
2022-09-23T20:59:14.968Z,99.90
2022-09-23T21:01:43.581Z,99.90
2022-09-23T21:04:11.632Z,99.90
2022-09-23T21:06:41.117Z,99.90
2022-09-23T21:09:09.131Z,99.90
2022-09-23T21:11:38.023Z,99.90
2022-09-23T21:14:06.186Z,99.90
2022-09-23T21:16:34.334Z,99.90
2022-09-23T21:19:03.832Z,99.90
2022-09-23T21:21:31.896Z,99.90
2022-09-23T21:24:23.867Z,99.90
2022-09-23T21:26:50.480Z,99.90
2022-09-23T21:29:19.128Z,99.90
2022-09-23T21:31:49.533Z,99.90
2022-09-23T21:34:17.785Z,99.90
2022-09-23T21:36:47.992Z,99.90
2022-09-23T21:39:17.425Z,99.90
2022-09-23T21:41:45.415Z,99.90
2022-09-23T21:44:13.427Z,99.90
2022-09-23T21:46:41.584Z,99.90
2022-09-23T21:49:09.800Z,99.90
2022-09-23T21:51:40.619Z,99.90
2022-09-23T21:54:12.647Z,99.90
2022-09-23T21:56:42.586Z,99.90
2022-09-23T21:59:11.248Z,99.90
2022-09-23T22:01:42.043Z,99.90
2022-09-23T22:04:15.337Z,99.90
2022-09-23T22:06:43.530Z,99.90
2022-09-23T22:09:14.427Z,99.90
2022-09-23T22:12:01.892Z,99.90
2022-09-23T22:14:30.642Z,99.90
2022-09-23T22:17:01.431Z,99.90
2022-09-23T22:19:34.816Z,99.90
2022-09-23T22:22:06.663Z,99.90
2022-09-23T22:24:34.658Z,99.90
2022-09-23T22:27:04.020Z,99.90
2022-09-23T22:29:49.309Z,99.90
2022-09-23T22:32:34.838Z,99.90
2022-09-23T22:35:02.857Z,99.90
2022-09-23T22:37:34.155Z,99.90
2022-09-23T22:40:03.199Z,99.90
2022-09-23T22:42:32.546Z,99.90
2022-09-23T22:45:00.636Z,99.90
2022-09-23T22:47:28.664Z,99.90
2022-09-23T22:49:56.677Z,99.90
2022-09-23T22:52:25.187Z,99.90
2022-09-23T22:54:53.828Z,99.90
2022-09-23T22:57:21.857Z,99.90
2022-09-23T22:59:51.162Z,99.90
2022-09-23T23:02:21.846Z,99.90
2022-09-23T23:04:50.742Z,99.90
2022-09-23T23:07:21.527Z,99.90
2022-09-23T23:09:50.793Z,99.90
2022-09-23T23:12:20.082Z,99.90
2022-09-23T23:14:50.198Z,99.90
2022-09-23T23:17:18.818Z,99.90
2022-09-23T23:19:46.987Z,99.90
2022-09-23T23:22:14.974Z,99.90
2022-09-23T23:24:43.066Z,99.90
2022-09-23T23:27:11.051Z,99.90
2022-09-23T23:29:39.050Z,99.90
2022-09-23T23:32:09.763Z,99.90
2022-09-23T23:34:37.736Z,99.90
2022-09-23T23:37:05.794Z,99.90
2022-09-23T23:39:35.138Z,99.90
2022-09-23T23:42:04.778Z,99.90
2022-09-23T23:44:34.436Z,99.90
2022-09-23T23:47:02.809Z,99.90
2022-09-23T23:49:32.357Z,99.90
2022-09-23T23:52:00.245Z,99.90
2022-09-23T23:54:28.134Z,99.90
2022-09-23T23:56:56.105Z,99.90
2022-09-23T23:59:24.533Z,99.90
